createdAt,value
2023-04-22T00:00:12.152Z,10.90
2023-04-22T00:10:11.147Z,10.90
2023-04-22T00:20:10.926Z,11.00
2023-04-22T00:30:12.984Z,11.00
2023-04-22T00:40:12.078Z,11.10
2023-04-22T00:50:10.881Z,11.10
2023-04-22T01:00:09.875Z,11.10
2023-04-22T01:10:08.848Z,11.30
2023-04-22T01:20:09.801Z,11.50
2023-04-22T01:30:08.889Z,11.60
2023-04-22T01:40:08.734Z,11.70
2023-04-22T01:50:08.032Z,11.80
2023-04-22T02:00:09.698Z,11.90
2023-04-22T02:10:10.333Z,11.90
2023-04-22T02:20:10.365Z,12.00
2023-04-22T02:30:09.347Z,12.10
2023-04-22T02:40:08.700Z,12.10
2023-04-22T02:50:08.428Z,12.20
2023-04-22T03:00:08.150Z,12.20
2023-04-22T03:10:07.644Z,12.20
2023-04-22T03:20:07.772Z,12.30
2023-04-22T03:30:07.579Z,12.40
2023-04-22T03:40:07.850Z,12.50
2023-04-22T03:50:07.600Z,12.50
2023-04-22T04:00:08.880Z,12.50
2023-04-22T04:10:08.274Z,12.60
2023-04-22T04:20:08.031Z,12.80
2023-04-22T04:30:12.240Z,12.90
2023-04-22T04:40:22.785Z,13.00
2023-04-22T04:50:23.444Z,13.00
2023-04-22T05:00:22.956Z,13.10
2023-04-22T05:10:22.221Z,13.20
2023-04-22T05:20:21.265Z,13.40
2023-04-22T05:30:20.306Z,13.60
2023-04-22T05:40:19.382Z,13.90
2023-04-22T05:50:21.235Z,14.30
2023-04-22T06:00:23.126Z,14.50
2023-04-22T06:10:22.149Z,14.70
2023-04-22T06:20:21.321Z,14.90
2023-04-22T06:30:20.715Z,15.20
2023-04-22T06:40:22.014Z,15.50
2023-04-22T06:50:23.126Z,15.50
2023-04-22T07:00:22.374Z,15.70
2023-04-22T07:10:22.954Z,16.00
2023-04-22T07:20:22.314Z,16.40
2023-04-22T07:30:21.438Z,17.50
2023-04-22T07:40:20.321Z,17.70
2023-04-22T07:50:19.062Z,18.00
2023-04-22T08:00:18.244Z,18.00
2023-04-22T08:10:17.003Z,18.30
2023-04-22T08:20:17.625Z,18.80
2023-04-22T08:30:16.070Z,19.20
2023-04-22T08:40:15.215Z,19.60
2023-04-22T08:50:14.334Z,20.10
2023-04-22T09:00:13.165Z,20.80
2023-04-22T09:10:12.357Z,20.70
2023-04-22T09:20:11.889Z,20.90
2023-04-22T09:30:11.513Z,20.80
2023-04-22T09:40:10.213Z,21.10
2023-04-22T09:50:09.170Z,21.60
2023-04-22T10:00:10.105Z,22.40
2023-04-22T10:10:09.072Z,23.20
2023-04-22T10:20:09.448Z,23.20
2023-04-22T10:30:08.211Z,22.90
2023-04-22T10:40:07.546Z,22.60
2023-04-22T10:50:06.299Z,22.30
2023-04-22T11:00:06.018Z,22.20
2023-04-22T11:10:06.527Z,22.90
2023-04-22T11:20:05.192Z,23.70
2023-04-22T11:30:04.430Z,24.40
2023-04-22T11:40:20.966Z,24.20
2023-04-22T11:50:04.752Z,24.00
2023-04-22T12:00:05.075Z,24.20
2023-04-22T12:10:05.167Z,24.60
2023-04-22T12:20:05.199Z,24.80
2023-04-22T12:30:04.235Z,24.50
2023-04-22T12:40:04.033Z,25.00
2023-04-22T12:50:05.123Z,25.20
2023-04-22T13:00:06.231Z,24.70
2023-04-22T13:10:05.255Z,24.60
2023-04-22T13:20:04.508Z,24.80
2023-04-22T13:30:06.920Z,24.20
2023-04-22T13:40:06.515Z,23.40
2023-04-22T13:50:05.712Z,23.20
2023-04-22T14:00:06.958Z,22.40
2023-04-22T14:10:08.021Z,21.40
2023-04-22T14:20:07.319Z,20.70
2023-04-22T14:30:07.966Z,20.50
2023-04-22T14:40:07.320Z,20.60
2023-04-22T14:50:06.270Z,20.50
2023-04-22T15:00:05.937Z,20.30
2023-04-22T15:10:05.580Z,20.20
2023-04-22T15:20:05.734Z,20.30
2023-04-22T15:30:05.836Z,20.30
2023-04-22T15:40:06.443Z,20.20
2023-04-22T15:50:08.272Z,20.00
2023-04-22T16:00:12.504Z,19.50
2023-04-22T16:10:10.669Z,19.10
2023-04-22T16:20:09.438Z,18.90
2023-04-22T16:30:08.528Z,18.60
2023-04-22T16:40:08.416Z,18.30
2023-04-22T16:50:09.472Z,18.20
2023-04-22T17:00:09.172Z,18.00
2023-04-22T17:10:08.585Z,17.80
2023-04-22T17:20:07.433Z,17.60
2023-04-22T17:30:06.504Z,17.60
2023-04-22T17:40:07.748Z,17.40
2023-04-22T17:50:06.769Z,17.30
2023-04-22T18:11:07.619Z,17.10
2023-04-22T18:21:06.627Z,16.90
2023-04-22T18:31:05.733Z,16.80
2023-04-22T18:41:04.616Z,16.70
2023-04-22T18:51:03.763Z,16.50
2023-04-22T19:01:03.044Z,16.40
2023-04-22T19:11:02.494Z,16.40
2023-04-22T19:21:02.425Z,16.40
2023-04-22T19:31:02.313Z,16.40
2023-04-22T19:41:01.562Z,16.40
2023-04-22T19:51:00.630Z,16.10
2023-04-22T20:00:59.494Z,15.50
2023-04-22T20:10:58.689Z,15.00
2023-04-22T20:20:58.383Z,14.80
2023-04-22T20:30:57.728Z,14.70
2023-04-22T20:40:56.644Z,14.60
2023-04-22T20:50:55.856Z,14.60
2023-04-22T21:00:54.712Z,14.50
2023-04-22T21:10:53.713Z,14.40
2023-04-22T21:20:52.730Z,14.40
2023-04-22T21:30:51.750Z,14.30
2023-04-22T21:40:50.785Z,14.20
2023-04-22T21:50:49.576Z,14.10
2023-04-22T22:00:48.652Z,14.00
2023-04-22T22:10:47.950Z,13.80
2023-04-22T22:20:47.412Z,13.60
2023-04-22T22:30:46.587Z,13.60
2023-04-22T22:40:45.923Z,13.50
2023-04-22T22:50:46.039Z,13.40
2023-04-22T23:00:45.112Z,13.30
2023-04-22T23:10:43.683Z,13.30
2023-04-22T23:20:42.725Z,13.20
2023-04-22T23:30:41.824Z,13.10
2023-04-22T23:40:40.606Z,13.10
2023-04-22T23:50:40.489Z,13.10
